Time,TemperatureF,DewpointF,PressureIn,WindDirection,WindDirectionDegrees,WindSpeedMPH,WindSpeedGustMPH,Humidity,HourlyPrecipIn,Conditions,Clouds,dailyrainin,SoftwareType,DateUTC
2013-06-10 00:03:00,46.4,43.0,30.06,WNW,303,0.0,0.0,86,0.00,,,0.00,weatherlink.com 1.10,2013-06-10 07:03:00,
2013-06-10 00:18:00,44.6,42.0,30.06,NW,309,0.0,0.0,89,0.00,,,0.00,weatherlink.com 1.10,2013-06-10 07:18:00,
2013-06-10 00:34:00,43.8,41.0,30.06,NW,309,0.0,0.0,90,0.00,,,0.00,weatherlink.com 1.10,2013-06-10 07:34:00,
2013-06-10 00:49:00,42.9,41.0,30.06,NW,309,0.0,0.0,91,0.00,,,0.00,weatherlink.com 1.10,2013-06-10 07:49:00,
2013-06-10 01:05:00,42.2,40.0,30.06,NW,309,0.0,0.0,92,0.00,,,0.00,weatherlink.com 1.10,2013-06-10 08:05:00,
2013-06-10 01:19:00,41.7,40.0,30.06,NNE,19,0.0,0.0,93,0.00,,,0.00,weatherlink.com 1.10,2013-06-10 08:19:00,
2013-06-10 01:34:00,41.2,40.0,30.06,NNE,21,0.0,0.0,94,0.00,,,0.00,weatherlink.com 1.10,2013-06-10 08:34:00,
2013-06-10 01:49:00,40.9,39.0,30.06,NNE,21,0.0,0.0,94,0.00,,,0.00,weatherlink.com 1.10,2013-06-10 08:49:00,
2013-06-10 02:04:00,40.6,39.0,30.06,NNE,24,0.0,0.0,95,0.00,,,0.00,weatherlink.com 1.10,2013-06-10 09:04:00,
2013-06-10 02:19:00,40.2,39.0,30.05,NNE,23,0.0,0.0,95,0.00,,,0.00,weatherlink.com 1.10,2013-06-10 09:19:00,
2013-06-10 02:34:00,39.8,39.0,30.05,NNE,23,0.0,0.0,95,0.00,,,0.00,weatherlink.com 1.10,2013-06-10 09:34:00,
2013-06-10 02:49:00,39.3,38.0,30.05,NNE,23,0.0,0.0,95,0.00,,,0.00,weatherlink.com 1.10,2013-06-10 09:49:00,
2013-06-10 03:04:00,39.0,38.0,30.04,NNE,23,0.0,0.0,96,0.00,,,0.00,weatherlink.com 1.10,2013-06-10 10:04:00,
2013-06-10 03:19:00,38.5,37.0,30.04,NNE,23,0.0,0.0,95,0.00,,,0.00,weatherlink.com 1.10,2013-06-10 10:19:00,
2013-06-10 03:34:00,38.2,37.0,30.03,NNE,23,0.0,0.0,96,0.00,,,0.00,weatherlink.com 1.10,2013-06-10 10:34:00,
2013-06-10 03:49:00,37.8,37.0,30.03,NNE,23,0.0,0.0,96,0.00,,,0.00,weatherlink.com 1.10,2013-06-10 10:49:00,
2013-06-10 04:04:00,37.5,37.0,30.03,NNE,23,0.0,0.0,96,0.00,,,0.00,weatherlink.com 1.10,2013-06-10 11:04:00,
2013-06-10 04:19:00,37.2,36.0,30.03,NNE,23,0.0,0.0,96,0.00,,,0.00,weatherlink.com 1.10,2013-06-10 11:19:00,
2013-06-10 04:34:00,37.0,36.0,30.03,NNE,23,0.0,0.0,96,0.00,,,0.00,weatherlink.com 1.10,2013-06-10 11:34:00,
2013-06-10 04:49:00,36.7,36.0,30.02,NNE,23,0.0,0.0,96,0.00,,,0.00,weatherlink.com 1.10,2013-06-10 11:49:00,
2013-06-10 05:04:00,36.3,35.0,30.03,NNE,23,0.0,0.0,96,0.00,,,0.00,weatherlink.com 1.10,2013-06-10 12:04:00,
2013-06-10 05:19:00,36.0,35.0,30.02,NNE,23,0.0,0.0,96,0.00,,,0.00,weatherlink.com 1.10,2013-06-10 12:19:00,
2013-06-10 05:34:00,35.9,35.0,30.02,NNE,23,0.0,0.0,97,0.00,,,0.00,weatherlink.com 1.10,2013-06-10 12:34:00,
2013-06-10 05:49:00,35.9,35.0,30.02,NNE,23,0.0,0.0,97,0.00,,,0.00,weatherlink.com 1.10,2013-06-10 12:49:00,
2013-06-10 06:04:00,36.1,35.0,30.03,NNE,23,0.0,0.0,97,0.00,,,0.00,weatherlink.com 1.10,2013-06-10 13:04:00,
2013-06-10 06:19:00,36.5,36.0,30.03,NNE,23,0.0,0.0,97,0.00,,,0.00,weatherlink.com 1.10,2013-06-10 13:19:00,
2013-06-10 06:34:00,37.6,37.0,30.03,NNE,23,0.0,0.0,97,0.00,,,0.00,weatherlink.com 1.10,2013-06-10 13:34:00,
2013-06-10 06:49:00,38.8,38.0,30.02,NNE,23,0.0,0.0,97,0.00,,,0.00,weatherlink.com 1.10,2013-06-10 13:49:00,
2013-06-10 07:04:00,41.9,41.0,30.02,NNE,23,0.0,0.0,98,0.00,,,0.00,weatherlink.com 1.10,2013-06-10 14:04:00,
2013-06-10 07:19:00,44.2,44.0,30.02,NNE,23,0.0,0.0,98,0.00,,,0.00,weatherlink.com 1.10,2013-06-10 14:19:00,
2013-06-10 07:34:00,45.2,45.0,30.02,WNW,295,0.0,0.0,98,0.00,,,0.00,weatherlink.com 1.10,2013-06-10 14:34:00,
2013-06-10 07:49:00,46.5,45.0,30.02,WNW,295,0.0,0.0,95,0.00,,,0.00,weatherlink.com 1.10,2013-06-10 14:49:00,
2013-06-10 08:04:00,48.2,46.0,30.02,NE,50,0.0,0.0,91,0.00,,,0.00,weatherlink.com 1.10,2013-06-10 15:04:00,
2013-06-10 08:20:00,48.3,45.0,30.02,SSW,205,0.0,0.0,88,0.00,,,0.00,weatherlink.com 1.10,2013-06-10 15:20:00,
2013-06-10 08:35:00,49.8,46.0,30.01,West,279,1.0,3.0,87,0.00,,,0.00,weatherlink.com 1.10,2013-06-10 15:35:00,
2013-06-10 08:50:00,50.4,46.0,30.01,West,275,0.0,5.0,84,0.00,,,0.00,weatherlink.com 1.10,2013-06-10 15:50:00,
2013-06-10 09:05:00,51.2,46.0,30.01,North,358,0.0,3.0,82,0.00,,,0.00,weatherlink.com 1.10,2013-06-10 16:05:00,
2013-06-10 09:20:00,51.7,46.0,30.01,NW,307,0.0,2.0,82,0.00,,,0.00,weatherlink.com 1.10,2013-06-10 16:20:00,
2013-06-10 09:35:00,53.2,47.0,30.01,West,264,0.0,3.0,78,0.00,,,0.00,weatherlink.com 1.10,2013-06-10 16:35:00,
2013-06-10 09:50:00,54.0,47.0,30.00,NW,304,0.0,5.0,76,0.00,,,0.00,weatherlink.com 1.10,2013-06-10 16:50:00,
2013-06-10 10:05:00,55.9,47.0,30.00,ENE,57,0.0,5.0,72,0.00,,,0.00,weatherlink.com 1.10,2013-06-10 17:05:00,
2013-06-10 10:20:00,56.5,46.0,30.00,ENE,69,0.0,8.0,68,0.00,,,0.00,weatherlink.com 1.10,2013-06-10 17:20:00,
2013-06-10 10:35:00,57.1,47.0,30.00,NW,321,0.0,8.0,68,0.00,,,0.00,weatherlink.com 1.10,2013-06-10 17:35:00,
2013-06-10 10:50:00,57.4,47.0,29.99,NW,318,1.0,5.0,68,0.00,,,0.00,weatherlink.com 1.10,2013-06-10 17:50:00,
2013-06-10 11:05:00,58.1,47.0,29.99,WNW,293,0.0,4.0,66,0.00,,,0.00,weatherlink.com 1.10,2013-06-10 18:05:00,
2013-06-10 11:20:00,59.9,49.0,29.99,NW,311,0.0,3.0,68,0.00,,,0.00,weatherlink.com 1.10,2013-06-10 18:20:00,
2013-06-10 11:35:00,61.3,48.0,29.99,ENE,75,2.0,9.0,63,0.00,,,0.00,weatherlink.com 1.10,2013-06-10 18:35:00,
2013-06-10 11:50:00,60.2,47.0,29.99,West,272,0.0,7.0,63,0.00,,,0.00,weatherlink.com 1.10,2013-06-10 18:50:00,
2013-06-10 12:05:00,60.0,47.0,29.98,West,266,0.0,6.0,63,0.00,,,0.00,weatherlink.com 1.10,2013-06-10 19:05:00,
2013-06-10 12:20:00,60.1,47.0,29.98,NW,317,0.0,4.0,63,0.00,,,0.00,weatherlink.com 1.10,2013-06-10 19:20:00,
2013-06-10 12:35:00,60.5,47.0,29.98,WNW,299,7.0,7.0,62,0.00,,,0.00,weatherlink.com 1.10,2013-06-10 19:35:00,
2013-06-10 12:50:00,61.9,49.0,29.98,ENE,58,1.0,5.0,63,0.00,,,0.00,weatherlink.com 1.10,2013-06-10 19:50:00,
2013-06-10 13:05:00,60.3,47.0,29.98,NW,306,0.0,7.0,62,0.00,,,0.00,weatherlink.com 1.10,2013-06-10 20:05:00,
2013-06-10 13:20:00,60.9,47.0,29.97,NNW,333,4.0,8.0,61,0.00,,,0.00,weatherlink.com 1.10,2013-06-10 20:20:00,
2013-06-10 13:35:00,60.5,48.0,29.97,NW,317,0.0,8.0,64,0.00,,,0.00,weatherlink.com 1.10,2013-06-10 20:35:00,
2013-06-10 13:50:00,60.8,47.0,29.97,WSW,253,0.0,8.0,61,0.00,,,0.00,weatherlink.com 1.10,2013-06-10 20:50:00,
2013-06-10 14:05:00,60.9,47.0,29.97,North,354,0.0,6.0,61,0.00,,,0.00,weatherlink.com 1.10,2013-06-10 21:05:00,
2013-06-10 14:20:00,60.9,47.0,29.97,SW,217,1.0,7.0,61,0.00,,,0.00,weatherlink.com 1.10,2013-06-10 21:20:00,
2013-06-10 14:35:00,61.4,48.0,29.96,WNW,296,0.0,9.0,61,0.00,,,0.00,weatherlink.com 1.10,2013-06-10 21:35:00,
2013-06-10 14:50:00,62.0,48.0,29.96,NW,318,4.0,6.0,60,0.00,,,0.00,weatherlink.com 1.10,2013-06-10 21:50:00,
2013-06-10 15:06:00,64.4,47.0,29.96,WNW,284,3.0,7.0,53,0.00,,,0.00,weatherlink.com 1.10,2013-06-10 22:06:00,
2013-06-10 15:21:00,66.0,48.0,29.96,WNW,289,0.0,7.0,52,0.00,,,0.00,weatherlink.com 1.10,2013-06-10 22:21:00,
2013-06-10 15:36:00,63.2,46.0,29.96,West,277,1.0,6.0,53,0.00,,,0.00,weatherlink.com 1.10,2013-06-10 22:36:00,
2013-06-10 15:51:00,63.5,46.0,29.95,NW,305,2.0,6.0,53,0.00,,,0.00,weatherlink.com 1.10,2013-06-10 22:51:00,
2013-06-10 16:06:00,65.4,43.0,29.95,NW,309,1.0,7.0,45,0.00,,,0.00,weatherlink.com 1.10,2013-06-10 23:06:00,
2013-06-10 16:21:00,65.2,44.0,29.94,West,269,0.0,9.0,47,0.00,,,0.00,weatherlink.com 1.10,2013-06-10 23:21:00,
2013-06-10 16:36:00,64.0,47.0,29.94,WNW,285,5.0,9.0,54,0.00,,,0.00,weatherlink.com 1.10,2013-06-10 23:36:00,
2013-06-10 16:51:00,63.3,47.0,29.94,WNW,290,3.0,8.0,55,0.00,,,0.00,weatherlink.com 1.10,2013-06-10 23:51:00,
2013-06-10 17:06:00,64.1,47.0,29.94,WNW,291,4.0,4.0,54,0.00,,,0.00,weatherlink.com 1.10,2013-06-11 00:06:00,
2013-06-10 17:21:00,66.6,47.0,29.94,WSW,250,2.0,8.0,50,0.00,,,0.00,weatherlink.com 1.10,2013-06-11 00:21:00,
2013-06-10 17:36:00,66.5,46.0,29.94,NW,310,5.0,9.0,48,0.00,,,0.00,weatherlink.com 1.10,2013-06-11 00:36:00,
2013-06-10 18:06:00,65.8,45.0,29.93,WNW,294,3.0,10.0,48,0.00,,,0.00,weatherlink.com 1.10,2013-06-11 01:06:00,
2013-06-10 18:21:00,65.2,46.0,29.93,West,272,6.0,11.0,50,0.00,,,0.00,weatherlink.com 1.10,2013-06-11 01:21:00,
2013-06-10 18:51:00,62.8,45.0,29.93,NW,318,3.0,15.0,53,0.00,,,0.00,weatherlink.com 1.10,2013-06-11 01:51:00,
2013-06-10 19:21:00,61.6,45.0,29.94,WSW,237,5.0,10.0,55,0.00,,,0.00,weatherlink.com 1.10,2013-06-11 02:21:00,
2013-06-10 19:36:00,60.7,45.0,29.94,NW,319,2.0,12.0,57,0.00,,,0.00,weatherlink.com 1.10,2013-06-11 02:36:00,
2013-06-10 19:51:00,59.6,45.0,29.94,South,183,3.0,15.0,60,0.00,,,0.00,weatherlink.com 1.10,2013-06-11 02:51:00,
2013-06-10 20:07:00,58.6,45.0,29.94,East,100,1.0,10.0,61,0.00,,,0.00,weatherlink.com 1.10,2013-06-11 03:07:00,
2013-06-10 20:21:00,57.2,44.0,29.95,NW,306,4.0,10.0,61,0.00,,,0.00,weatherlink.com 1.10,2013-06-11 03:21:00,
2013-06-10 20:36:00,55.4,44.0,29.95,WNW,299,2.0,8.0,66,0.00,,,0.00,weatherlink.com 1.10,2013-06-11 03:36:00,
2013-06-10 21:06:00,53.6,45.0,29.97,WSW,248,1.0,8.0,73,0.00,,,0.00,weatherlink.com 1.10,2013-06-11 04:06:00,
2013-06-10 21:21:00,52.8,45.0,29.98,WNW,285,0.0,3.0,75,0.00,,,0.00,weatherlink.com 1.10,2013-06-11 04:21:00,
2013-06-10 21:36:00,52.1,45.0,29.98,WNW,302,0.0,2.0,76,0.00,,,0.00,weatherlink.com 1.10,2013-06-11 04:36:00,
2013-06-10 21:51:00,52.2,45.0,29.99,WNW,300,0.0,6.0,76,0.00,,,0.00,weatherlink.com 1.10,2013-06-11 04:51:00,
2013-06-10 22:06:00,52.0,45.0,29.99,West,271,0.0,3.0,76,0.00,,,0.00,weatherlink.com 1.10,2013-06-11 05:06:00,
2013-06-10 22:21:00,51.7,44.0,30.00,NW,315,2.0,6.0,75,0.00,,,0.00,weatherlink.com 1.10,2013-06-11 05:21:00,
2013-06-10 22:36:00,51.3,44.0,30.00,WNW,288,0.0,4.0,76,0.00,,,0.00,weatherlink.com 1.10,2013-06-11 05:36:00,
2013-06-10 22:51:00,50.4,44.0,30.00,WNW,300,0.0,0.0,79,0.00,,,0.00,weatherlink.com 1.10,2013-06-11 05:51:00,
2013-06-10 23:06:00,50.2,44.0,30.00,WNW,303,0.0,2.0,80,0.00,,,0.00,weatherlink.com 1.10,2013-06-11 06:06:00,
2013-06-10 23:21:00,50.1,44.0,30.00,NW,311,0.0,3.0,80,0.00,,,0.00,weatherlink.com 1.10,2013-06-11 06:21:00,
2013-06-10 23:36:00,49.8,44.0,30.00,WNW,299,0.0,3.0,81,0.00,,,0.00,weatherlink.com 1.10,2013-06-11 06:36:00,
2013-06-10 23:51:00,49.9,44.0,30.00,NW,309,0.0,4.0,81,0.00,,,0.00,weatherlink.com 1.10,2013-06-11 06:51:00,